Time;durP1;ratioP1;P1;durP2;ratioP2;P2;SDS_P1;SDS_P2;PMS_P1;PMS_P2;Temp;Humidity;BMP_temperature;BMP_pressure;BME280_temperature;BME280_humidity;BME280_pressure;Samples;Min_cycle;Max_cycle;Signal;HPM_P1;HPM_P2
2022/09/24 00:01:23;;;;;;;40.88;35.25;;;14.20;99.90;;;;;;5044153;28;20224;-73
2022/09/24 00:03:53;;;;;;;41.47;35.58;;;14.30;99.90;;;;;;5047204;28;20286;-75
2022/09/24 00:06:21;;;;;;;35.95;31.98;;;14.30;99.90;;;;;;5052215;28;20206;-74
2022/09/24 00:08:49;;;;;;;39.70;35.45;;;14.30;99.90;;;;;;5043466;28;20227;-73
2022/09/24 00:11:19;;;;;;;43.50;36.33;;;14.30;99.90;;;;;;5037106;28;20303;-73
2022/09/24 00:13:49;;;;;;;41.45;37.10;;;14.30;99.90;;;;;;5053422;28;20208;-74
2022/09/24 00:16:17;;;;;;;49.60;39.25;;;14.30;99.90;;;;;;5053019;28;20200;-75
2022/09/24 00:18:45;;;;;;;38.05;34.15;;;14.20;99.90;;;;;;5047420;28;20224;-72
2022/09/24 00:21:14;;;;;;;40.45;34.85;;;14.20;99.90;;;;;;5043856;28;20664;-74
2022/09/24 00:23:41;;;;;;;41.97;36.40;;;14.30;99.90;;;;;;5050151;28;20200;-73
2022/09/24 00:28:56;;;;;;;38.17;34.17;;;14.20;99.90;;;;;;5038019;28;20199;-73
2022/09/24 00:31:24;;;;;;;44.05;39.05;;;14.20;99.90;;;;;;5046833;28;20223;-73
2022/09/24 00:33:51;;;;;;;37.05;33.25;;;14.20;99.90;;;;;;5045762;28;20593;-74
2022/09/24 00:36:19;;;;;;;39.00;34.97;;;14.20;99.90;;;;;;5043301;28;20200;-74
2022/09/24 00:38:50;;;;;;;38.35;33.85;;;14.20;99.90;;;;;;5044263;28;20330;-74
2022/09/24 00:41:18;;;;;;;37.15;33.13;;;14.20;99.90;;;;;;5036478;28;20717;-73
2022/09/24 00:43:46;;;;;;;37.90;33.85;;;14.20;99.90;;;;;;5045316;28;20269;-73
2022/09/24 00:46:21;;;;;;;53.55;41.53;;;14.20;99.90;;;;;;5038499;28;20208;-74
2022/09/24 00:48:50;;;;;;;38.70;33.97;;;14.10;99.90;;;;;;5038563;28;20259;-73
2022/09/24 00:51:20;;;;;;;47.28;38.58;;;14.00;99.90;;;;;;5037955;28;20196;-75
2022/09/24 00:53:49;;;;;;;35.97;31.13;;;14.00;99.90;;;;;;5044172;28;20200;-76
2022/09/24 00:56:18;;;;;;;43.80;37.20;;;14.00;99.90;;;;;;5038971;28;20287;-75
2022/09/24 00:58:51;;;;;;;39.28;34.58;;;13.90;99.90;;;;;;5038698;28;20228;-75
2022/09/24 01:01:20;;;;;;;41.58;35.42;;;14.00;99.90;;;;;;5050799;28;20219;-74
2022/09/24 01:03:49;;;;;;;36.30;31.40;;;14.00;99.90;;;;;;5037224;28;20628;-75
2022/09/24 01:06:16;;;;;;;39.38;35.17;;;14.00;99.90;;;;;;5041369;28;20362;-74
2022/09/24 01:08:44;;;;;;;41.45;35.50;;;13.90;99.90;;;;;;5044350;28;20262;-74
2022/09/24 01:11:26;;;;;;;46.25;35.97;;;13.90;99.90;;;;;;5040625;28;20192;-74
2022/09/24 01:14:25;;;;;;;39.20;34.92;;;13.80;99.90;;;;;;5048824;28;20212;-74
2022/09/24 01:17:03;;;;;;;44.42;38.80;;;13.90;99.90;;;;;;5046804;28;20656;-74
2022/09/24 01:19:55;;;;;;;36.15;32.28;;;13.80;99.90;;;;;;5041840;28;20212;-75
2022/09/24 01:22:36;;;;;;;34.25;30.25;;;13.90;99.90;;;;;;5031292;28;20301;-75
2022/09/24 01:25:08;;;;;;;38.72;33.05;;;13.80;99.90;;;;;;5050629;28;20498;-76
2022/09/24 01:27:53;;;;;;;39.50;35.10;;;13.80;99.90;;;;;;5043772;28;20305;-73
2022/09/24 01:30:22;;;;;;;39.05;34.65;;;13.80;99.90;;;;;;5043243;28;20204;-73
2022/09/24 01:32:53;;;;;;;46.95;37.42;;;13.90;99.90;;;;;;5047995;28;20287;-73
2022/09/24 01:35:23;;;;;;;43.25;37.13;;;13.80;99.90;;;;;;5043085;28;20226;-74
2022/09/24 01:37:56;;;;;;;44.95;39.90;;;13.80;99.90;;;;;;5049862;28;20248;-73
2022/09/24 01:40:26;;;;;;;45.85;38.42;;;13.80;99.90;;;;;;5040710;28;20246;-73
2022/09/24 01:42:56;;;;;;;45.40;38.22;;;13.80;99.90;;;;;;5048050;28;20538;-73
2022/09/24 01:45:28;;;;;;;42.90;38.20;;;13.80;99.90;;;;;;5043398;28;20201;-74
2022/09/24 01:47:56;;;;;;;37.78;32.53;;;13.80;99.90;;;;;;5046796;28;20226;-73
2022/09/24 01:50:26;;;;;;;49.90;36.78;;;13.80;99.90;;;;;;5045193;28;20575;-75
2022/09/24 01:53:00;;;;;;;40.20;35.55;;;13.70;99.90;;;;;;5044700;28;20206;-74
2022/09/24 01:55:31;;;;;;;38.72;33.85;;;13.70;99.90;;;;;;5034766;28;20366;-74
2022/09/24 01:58:05;;;;;;;51.20;40.17;;;13.80;99.90;;;;;;5050659;28;20306;-73
2022/09/24 02:00:34;;;;;;;43.17;38.13;;;13.70;99.90;;;;;;5051377;28;20250;-74
2022/09/24 02:03:08;;;;;;;44.72;37.92;;;13.70;99.90;;;;;;5049716;28;20238;-75
2022/09/24 02:05:41;;;;;;;46.78;40.15;;;13.70;99.90;;;;;;5049434;28;20277;-75
2022/09/24 02:08:14;;;;;;;49.92;41.53;;;13.60;99.90;;;;;;5047521;28;20255;-75
2022/09/24 02:10:46;;;;;;;44.65;38.58;;;13.60;99.90;;;;;;5040264;28;20218;-74
2022/09/24 02:13:17;;;;;;;45.20;40.35;;;13.60;99.90;;;;;;5049641;28;20311;-75
2022/09/24 02:15:49;;;;;;;50.60;41.38;;;13.70;99.90;;;;;;5039170;28;20279;-73
2022/09/24 02:18:18;;;;;;;49.03;41.80;;;13.70;99.90;;;;;;5062327;28;20235;-73
2022/09/24 02:20:46;;;;;;;40.63;36.35;;;13.70;99.90;;;;;;5042955;28;20251;-75
2022/09/24 02:23:16;;;;;;;38.35;34.38;;;13.70;99.90;;;;;;5053951;28;20626;-73
2022/09/24 02:25:50;;;;;;;41.25;37.03;;;13.70;99.90;;;;;;5052938;28;20294;-73
2022/09/24 02:28:17;;;;;;;40.67;36.28;;;13.70;99.90;;;;;;5041933;28;20307;-71
2022/09/24 02:30:51;;;;;;;36.65;32.75;;;13.60;99.90;;;;;;5046670;28;20203;-73
2022/09/24 02:36:05;;;;;;;37.00;31.80;;;13.70;99.90;;;;;;5047641;28;20330;-72
2022/09/24 02:38:32;;;;;;;41.20;34.92;;;13.60;99.90;;;;;;5036864;28;20280;-73
2022/09/24 02:40:59;;;;;;;40.28;35.50;;;13.70;99.90;;;;;;5040808;28;20314;-73
2022/09/24 02:43:26;;;;;;;42.97;37.53;;;13.60;99.90;;;;;;5037235;28;20224;-74
2022/09/24 02:45:55;;;;;;;44.33;38.50;;;13.50;99.90;;;;;;5036004;28;20210;-73
2022/09/24 02:48:21;;;;;;;44.75;38.30;;;13.60;99.90;;;;;;5041470;28;20230;-74
2022/09/24 02:50:49;;;;;;;43.38;38.75;;;13.40;99.90;;;;;;5035550;28;20200;-74
2022/09/24 02:53:15;;;;;;;43.15;38.38;;;13.40;99.90;;;;;;5039543;28;20290;-75
2022/09/24 02:55:42;;;;;;;38.00;34.00;;;13.50;99.90;;;;;;5040271;28;20199;-75
2022/09/24 02:58:09;;;;;;;39.72;35.38;;;13.50;99.90;;;;;;5038019;28;20316;-74
2022/09/24 03:00:36;;;;;;;41.40;36.90;;;13.40;99.90;;;;;;5043575;28;20249;-73
2022/09/24 03:03:04;;;;;;;41.08;36.70;;;13.50;99.90;;;;;;5038870;28;20316;-71
2022/09/24 03:05:31;;;;;;;47.28;40.30;;;13.50;99.90;;;;;;5042185;28;20292;-73
2022/09/24 03:07:58;;;;;;;40.60;36.17;;;13.40;99.90;;;;;;5045994;28;20230;-72
2022/09/24 03:10:26;;;;;;;42.90;38.33;;;13.50;99.90;;;;;;5047813;28;20291;-73
2022/09/24 03:12:53;;;;;;;46.40;38.10;;;13.50;99.90;;;;;;5038966;28;20693;-74
2022/09/24 03:15:19;;;;;;;42.35;36.47;;;13.40;99.90;;;;;;5047318;28;20605;-73
2022/09/24 03:17:46;;;;;;;40.92;35.75;;;13.40;99.90;;;;;;5044941;28;20281;-73
2022/09/24 03:20:15;;;;;;;36.83;33.03;;;13.40;99.90;;;;;;5037231;28;20207;-74
2022/09/24 03:22:42;;;;;;;35.78;30.95;;;13.40;99.90;;;;;;5050806;28;20218;-74
2022/09/24 03:25:10;;;;;;;42.03;31.90;;;13.40;99.90;;;;;;5042824;28;20292;-73
2022/09/24 03:27:37;;;;;;;32.47;29.00;;;13.30;99.90;;;;;;5040300;28;20232;-73
2022/09/24 03:32:49;;;;;;;36.40;32.55;;;13.40;99.90;;;;;;5039304;28;20664;-72
2022/09/24 03:35:18;;;;;;;36.78;32.00;;;13.30;99.90;;;;;;5047863;28;20207;-72
2022/09/24 03:37:45;;;;;;;34.92;30.15;;;13.30;99.90;;;;;;5045419;28;20229;-73
2022/09/24 03:40:12;;;;;;;32.15;28.70;;;13.30;99.90;;;;;;5042514;28;20557;-74
2022/09/24 03:42:39;;;;;;;34.72;31.05;;;13.30;99.90;;;;;;5044453;28;20692;-73
2022/09/24 03:45:07;;;;;;;38.40;32.55;;;13.30;99.90;;;;;;5043544;28;20206;-72
2022/09/24 03:47:34;;;;;;;34.83;31.13;;;13.30;99.90;;;;;;5050936;28;20230;-72
2022/09/24 03:50:02;;;;;;;40.20;32.40;;;13.30;99.90;;;;;;5045460;28;20238;-72
2022/09/24 03:52:30;;;;;;;32.28;28.90;;;13.30;99.90;;;;;;5052395;28;20297;-72
2022/09/24 03:54:57;;;;;;;34.42;30.83;;;13.20;99.90;;;;;;5046989;28;20203;-73
2022/09/24 03:57:24;;;;;;;33.03;29.42;;;13.30;99.90;;;;;;5049650;28;20236;-73
2022/09/24 03:59:53;;;;;;;35.95;32.25;;;13.20;99.90;;;;;;5058653;28;20213;-72
2022/09/24 04:02:19;;;;;;;36.72;32.97;;;13.20;99.90;;;;;;5055625;28;20215;-73
2022/09/24 04:04:49;;;;;;;43.53;34.58;;;13.20;99.90;;;;;;5054840;28;20213;-72
2022/09/24 04:07:16;;;;;;;38.25;33.42;;;13.20;99.90;;;;;;5039598;28;20234;-72
2022/09/24 04:09:44;;;;;;;39.65;33.60;;;13.10;99.90;;;;;;5039229;28;20287;-72
2022/09/24 04:12:12;;;;;;;32.95;29.40;;;13.20;99.90;;;;;;5044175;28;20284;-71
2022/09/24 04:14:38;;;;;;;34.70;30.35;;;13.20;99.90;;;;;;5042976;28;20195;-73
2022/09/24 04:17:06;;;;;;;37.75;31.35;;;13.20;99.90;;;;;;5037782;28;20227;-73
2022/09/24 04:19:32;;;;;;;42.63;35.03;;;13.20;99.90;;;;;;5041949;28;20317;-73
2022/09/24 04:22:00;;;;;;;38.63;32.67;;;13.30;99.90;;;;;;5041661;28;20318;-73
2022/09/24 04:24:26;;;;;;;32.38;28.95;;;13.30;99.90;;;;;;5037629;28;20203;-74
2022/09/24 04:26:55;;;;;;;39.28;31.88;;;13.30;99.90;;;;;;5044363;28;20281;-72
2022/09/24 04:29:22;;;;;;;35.22;30.75;;;13.40;99.90;;;;;;5046935;28;20680;-74
2022/09/24 04:31:48;;;;;;;34.65;29.75;;;13.40;99.90;;;;;;5049661;28;20560;-74
2022/09/24 04:34:16;;;;;;;30.45;27.15;;;13.40;99.90;;;;;;5038442;28;20647;-72
2022/09/24 04:36:43;;;;;;;35.50;31.23;;;13.40;99.90;;;;;;5042537;28;20570;-73
2022/09/24 04:39:10;;;;;;;33.35;29.63;;;13.40;99.90;;;;;;5035486;28;20637;-73
2022/09/24 04:41:38;;;;;;;36.72;31.17;;;13.50;99.90;;;;;;5040182;28;20211;-72
2022/09/24 04:44:07;;;;;;;34.22;29.38;;;13.40;99.90;;;;;;5039767;28;20234;-72
2022/09/24 04:46:34;;;;;;;36.15;30.42;;;13.40;99.90;;;;;;5036913;28;20199;-73
2022/09/24 04:49:01;;;;;;;37.75;30.23;;;13.40;99.90;;;;;;5040677;28;20209;-73
2022/09/24 04:51:28;;;;;;;38.95;34.47;;;13.50;99.90;;;;;;5040934;28;20204;-72
2022/09/24 04:53:55;;;;;;;42.03;34.00;;;13.40;99.90;;;;;;5042128;28;20211;-72
2022/09/24 04:56:22;;;;;;;34.78;30.88;;;13.40;99.90;;;;;;5039406;28;20206;-72
2022/09/24 04:58:50;;;;;;;49.67;35.88;;;13.30;99.90;;;;;;5043995;28;20304;-72
2022/09/24 05:01:19;;;;;;;40.33;33.85;;;13.40;99.90;;;;;;5044803;28;20871;-72
2022/09/24 05:03:46;;;;;;;47.90;34.53;;;13.20;99.90;;;;;;5042068;28;20214;-72
2022/09/24 05:06:13;;;;;;;37.72;32.28;;;13.30;99.90;;;;;;5043063;28;20645;-73
2022/09/24 05:08:40;;;;;;;42.42;33.80;;;13.30;99.90;;;;;;5046673;28;20313;-71
2022/09/24 05:11:07;;;;;;;43.78;36.40;;;13.30;99.90;;;;;;5032534;28;20203;-73
2022/09/24 05:13:34;;;;;;;38.58;34.38;;;13.30;99.90;;;;;;5036697;28;20295;-74
2022/09/24 05:16:02;;;;;;;39.42;35.20;;;13.30;99.90;;;;;;5038145;28;20207;-72
2022/09/24 05:18:30;;;;;;;44.35;36.78;;;13.30;99.90;;;;;;5033274;28;20237;-73
2022/09/24 05:20:57;;;;;;;47.28;39.40;;;13.30;99.90;;;;;;5033689;28;20311;-72
2022/09/24 05:23:24;;;;;;;46.22;35.20;;;13.20;99.90;;;;;;5033343;28;20323;-73
2022/09/24 05:28:36;;;;;;;44.83;36.58;;;13.30;99.90;;;;;;5039002;28;20754;-73
2022/09/24 05:31:03;;;;;;;52.42;41.25;;;13.40;99.90;;;;;;5034286;28;20302;-74
2022/09/24 05:33:31;;;;;;;44.47;38.40;;;13.30;99.90;;;;;;5036193;28;20204;-71
2022/09/24 05:35:58;;;;;;;56.40;43.03;;;13.40;99.90;;;;;;5036260;28;20239;-72
2022/09/24 05:38:25;;;;;;;55.65;42.10;;;13.40;99.90;;;;;;5045003;28;20223;-71
2022/09/24 05:40:53;;;;;;;61.03;44.38;;;13.40;99.90;;;;;;5038969;28;20219;-72
2022/09/24 05:43:20;;;;;;;53.13;43.30;;;13.40;99.90;;;;;;5050829;28;20214;-72
2022/09/24 05:45:49;;;;;;;50.80;41.90;;;13.40;99.90;;;;;;5041059;28;20262;-72
2022/09/24 05:48:17;;;;;;;47.00;39.38;;;13.40;99.90;;;;;;5052834;28;20609;-74
2022/09/24 05:50:45;;;;;;;59.00;44.90;;;13.50;99.90;;;;;;5046685;28;20221;-73
2022/09/24 05:53:13;;;;;;;68.93;46.75;;;13.50;99.90;;;;;;5053809;28;20199;-73
2022/09/24 05:55:40;;;;;;;48.78;40.28;;;13.60;99.90;;;;;;5047656;28;20673;-72
2022/09/24 05:58:09;;;;;;;52.00;41.70;;;13.50;99.90;;;;;;5043558;28;20235;-72
2022/09/24 06:00:36;;;;;;;51.88;42.75;;;13.60;99.90;;;;;;5054740;28;20211;-73
2022/09/24 06:03:06;;;;;;;57.15;44.75;;;13.60;99.90;;;;;;5044968;28;20563;-73
2022/09/24 06:05:34;;;;;;;56.72;45.53;;;13.60;99.90;;;;;;5047624;28;20207;-73
2022/09/24 06:08:03;;;;;;;49.42;39.55;;;13.60;99.90;;;;;;5042689;28;20228;-75
2022/09/24 06:10:30;;;;;;;56.63;45.28;;;13.70;99.90;;;;;;5036622;28;20363;-73
2022/09/24 06:12:57;;;;;;;51.50;43.40;;;13.80;99.90;;;;;;5039701;28;20430;-75
2022/09/24 06:15:26;;;;;;;58.67;50.42;;;13.70;99.90;;;;;;5049703;28;20466;-72
2022/09/24 06:17:54;;;;;;;51.50;45.85;;;13.80;99.90;;;;;;5045970;28;20443;-74
2022/09/24 06:20:21;;;;;;;53.92;47.72;;;13.90;99.90;;;;;;5037811;28;20444;-72
2022/09/24 06:22:48;;;;;;;50.40;41.00;;;14.10;99.90;;;;;;5046261;28;20219;-73
2022/09/24 06:25:16;;;;;;;52.15;42.55;;;13.90;99.90;;;;;;5052849;28;20295;-73
2022/09/24 06:27:46;;;;;;;56.60;45.97;;;14.00;99.90;;;;;;5039577;28;20318;-72
2022/09/24 06:30:13;;;;;;;62.92;42.50;;;13.90;99.90;;;;;;5051246;28;20200;-74
2022/09/24 06:32:40;;;;;;;63.72;45.35;;;14.00;99.90;;;;;;5047305;28;20750;-72
2022/09/24 06:35:08;;;;;;;61.70;48.15;;;13.80;99.90;;;;;;5056165;28;20535;-73
2022/09/24 06:37:48;;;;;;;54.05;42.15;;;13.80;99.90;;;;;;5047427;28;20303;-72
2022/09/24 06:40:16;;;;;;;46.28;39.38;;;13.80;99.90;;;;;;5045675;28;20203;-74
2022/09/24 06:42:51;;;;;;;52.65;41.20;;;14.00;99.90;;;;;;5049056;28;20208;-75
2022/09/24 06:45:18;;;;;;;54.25;43.67;;;14.00;99.90;;;;;;5055899;28;20207;-73
2022/09/24 06:47:57;;;;;;;53.40;43.08;;;14.00;99.90;;;;;;5052275;28;20255;-74
2022/09/24 06:50:26;;;;;;;61.17;47.42;;;13.90;99.90;;;;;;5053138;28;20711;-75
2022/09/24 06:52:54;;;;;;;53.20;41.33;;;13.90;99.90;;;;;;5049805;28;20191;-72
2022/09/24 06:55:23;;;;;;;65.00;46.17;;;14.00;99.90;;;;;;5051402;28;20200;-73
2022/09/24 06:58:03;;;;;;;52.75;42.40;;;14.00;99.90;;;;;;5055657;28;20314;-73
2022/09/24 07:00:34;;;;;;;62.55;47.97;;;13.90;99.90;;;;;;5046565;28;20205;-74
2022/09/24 07:03:07;;;;;;;51.90;41.25;;;14.00;99.90;;;;;;5050986;28;20227;-72
2022/09/24 07:05:34;;;;;;;58.40;47.40;;;14.00;99.90;;;;;;5047462;28;20226;-72
2022/09/24 07:08:02;;;;;;;67.53;47.17;;;13.90;99.90;;;;;;5046072;28;20413;-75
2022/09/24 07:10:31;;;;;;;57.30;44.13;;;13.90;99.90;;;;;;5053508;28;20281;-74
2022/09/24 07:12:58;;;;;;;51.95;43.50;;;14.00;99.90;;;;;;5043701;28;20205;-75
2022/09/24 07:15:25;;;;;;;49.88;42.70;;;14.10;99.90;;;;;;5047803;28;20202;-74
2022/09/24 07:17:55;;;;;;;62.75;46.15;;;14.10;99.90;;;;;;5043226;28;20236;-73
2022/09/24 07:20:22;;;;;;;49.65;42.15;;;14.20;99.90;;;;;;5044718;28;20210;-72
2022/09/24 07:22:49;;;;;;;49.67;43.42;;;14.20;99.90;;;;;;5056300;28;20310;-72
2022/09/24 07:25:16;;;;;;;49.25;41.10;;;14.30;99.90;;;;;;5057286;28;20610;-72
2022/09/24 07:27:44;;;;;;;51.35;43.83;;;14.30;99.90;;;;;;5055017;28;20298;-70
2022/09/24 07:30:15;;;;;;;54.60;43.95;;;14.30;99.90;;;;;;5050992;28;20199;-73
2022/09/24 07:32:47;;;;;;;54.15;42.08;;;14.30;99.90;;;;;;5047047;28;20230;-73
2022/09/24 07:35:19;;;;;;;48.28;39.72;;;14.40;99.90;;;;;;5052244;28;20565;-76
2022/09/24 07:37:46;;;;;;;62.70;48.35;;;14.40;99.90;;;;;;5047702;28;20224;-76
2022/09/24 07:40:13;;;;;;;48.75;41.88;;;14.40;99.90;;;;;;5047204;28;20282;-75
2022/09/24 07:42:48;;;;;;;49.30;39.95;;;14.40;99.90;;;;;;5048351;28;20228;-75
2022/09/24 07:45:16;;;;;;;56.60;44.55;;;14.40;99.90;;;;;;5039644;28;20291;-73
2022/09/24 07:47:43;;;;;;;65.60;48.03;;;14.40;99.90;;;;;;5043252;28;20220;-74
2022/09/24 07:50:11;;;;;;;64.80;51.42;;;14.40;99.90;;;;;;5048310;28;20206;-76
2022/09/24 07:52:38;;;;;;;62.38;48.55;;;14.30;99.90;;;;;;5048387;28;20283;-75
2022/09/24 07:55:05;;;;;;;72.80;51.95;;;14.30;99.90;;;;;;5050255;28;20282;-74
2022/09/24 07:57:32;;;;;;;71.20;51.13;;;14.30;99.90;;;;;;5039006;28;20230;-74
2022/09/24 08:00:01;;;;;;;51.72;43.47;;;14.50;99.90;;;;;;5046127;28;20649;-75
2022/09/24 08:02:28;;;;;;;56.35;44.05;;;14.50;99.90;;;;;;5045896;28;20230;-73
2022/09/24 08:04:55;;;;;;;47.03;40.17;;;14.60;99.90;;;;;;5047791;28;20214;-75
2022/09/24 08:07:22;;;;;;;64.43;49.47;;;14.70;99.90;;;;;;5048377;28;20230;-77
2022/09/24 08:09:51;;;;;;;74.22;51.03;;;14.80;99.90;;;;;;5047794;28;20208;-75
2022/09/24 08:12:18;;;;;;;56.65;46.60;;;14.80;99.90;;;;;;5045762;28;20287;-74
2022/09/24 08:14:45;;;;;;;61.83;48.15;;;14.90;99.90;;;;;;5048582;28;20206;-73
2022/09/24 08:17:16;;;;;;;56.53;46.25;;;14.90;99.90;;;;;;5041363;28;20278;-75
2022/09/24 08:19:45;;;;;;;68.53;50.05;;;14.90;99.90;;;;;;5043440;28;20204;-74
2022/09/24 08:22:13;;;;;;;53.15;45.17;;;14.80;99.90;;;;;;5041059;28;20204;-74
2022/09/24 08:24:40;;;;;;;53.97;43.20;;;14.80;99.90;;;;;;5047812;28;20322;-73
2022/09/24 08:27:07;;;;;;;65.18;51.20;;;14.80;99.90;;;;;;5054255;28;20239;-75
2022/09/24 08:29:35;;;;;;;55.25;46.78;;;14.70;99.90;;;;;;5041395;28;20200;-73
2022/09/24 08:32:02;;;;;;;62.58;49.70;;;14.70;99.90;;;;;;5047644;28;20254;-75
2022/09/24 08:34:37;;;;;;;63.60;50.63;;;14.70;99.90;;;;;;5040823;28;20560;-73
2022/09/24 08:37:04;;;;;;;75.13;53.10;;;14.70;99.90;;;;;;5045752;28;20226;-73
2022/09/24 08:39:32;;;;;;;75.40;54.33;;;14.60;99.90;;;;;;5045072;28;20208;-73
2022/09/24 08:42:01;;;;;;;71.22;52.75;;;14.80;99.90;;;;;;5047477;28;20231;-72
2022/09/24 08:47:31;;;;;;;56.03;46.58;;;14.80;99.90;;;;;;5043856;28;20222;-73
2022/09/24 08:50:08;;;;;;;81.82;54.55;;;14.80;99.90;;;;;;5050510;28;20294;-73
2022/09/24 08:52:52;;;;;;;79.13;53.53;;;14.80;99.90;;;;;;5026812;28;20275;-72
2022/09/24 08:55:22;;;;;;;77.90;55.60;;;14.70;99.90;;;;;;5032724;28;20207;-73
2022/09/24 08:57:58;;;;;;;65.47;51.33;;;14.80;99.90;;;;;;5045663;28;20310;-73
2022/09/24 09:00:28;;;;;;;62.83;47.30;;;14.80;99.90;;;;;;5050604;28;21542;-74
2022/09/24 09:03:01;;;;;;;61.20;49.92;;;14.80;99.90;;;;;;5051157;28;20586;-74
2022/09/24 09:05:47;;;;;;;71.20;53.17;;;14.90;99.90;;;;;;5050957;28;20234;-76
2022/09/24 09:08:20;;;;;;;63.83;48.03;;;15.10;99.90;;;;;;5024083;28;20224;-73
2022/09/24 09:10:48;;;;;;;76.55;53.95;;;15.20;99.90;;;;;;5022781;28;20215;-73
2022/09/24 09:13:21;;;;;;;75.75;55.05;;;15.30;99.90;;;;;;5039238;28;20232;-74
2022/09/24 09:15:54;;;;;;;73.75;50.47;;;15.40;99.90;;;;;;5035882;28;20292;-73
2022/09/24 09:18:26;;;;;;;63.22;48.92;;;15.30;99.90;;;;;;5042889;28;20318;-73
2022/09/24 09:21:10;;;;;;;68.72;49.42;;;15.40;99.90;;;;;;5061101;28;20211;-74
2022/09/24 09:23:41;;;;;;;62.53;46.83;;;15.50;99.90;;;;;;5040530;28;20628;-75
2022/09/24 09:26:11;;;;;;;64.07;48.13;;;15.50;99.90;;;;;;5042569;28;20209;-74
2022/09/24 09:28:38;;;;;;;56.70;45.97;;;15.60;99.90;;;;;;5034597;28;20383;-73
2022/09/24 09:31:10;;;;;;;54.10;42.75;;;15.60;99.90;;;;;;5033615;28;20296;-73
2022/09/24 09:33:49;;;;;;;65.07;48.53;;;15.80;99.90;;;;;;5036163;28;20242;-75
2022/09/24 09:36:32;;;;;;;55.55;42.58;;;15.80;99.90;;;;;;5032710;28;20258;-72
2022/09/24 09:39:04;;;;;;;49.58;38.13;;;15.90;99.90;;;;;;5023716;28;20197;-74
2022/09/24 09:41:39;;;;;;;51.70;43.03;;;16.00;99.90;;;;;;5039341;28;20213;-74
2022/09/24 09:44:14;;;;;;;48.80;41.90;;;16.20;99.90;;;;;;5048298;28;20299;-74
2022/09/24 09:46:46;;;;;;;54.63;46.25;;;16.10;99.90;;;;;;5052751;28;20640;-74
2022/09/24 09:49:14;;;;;;;50.53;39.70;;;16.30;99.90;;;;;;5037818;28;20299;-73
2022/09/24 09:51:46;;;;;;;60.60;47.05;;;16.40;99.90;;;;;;5040366;28;20246;-75
2022/09/24 09:54:13;;;;;;;59.30;45.83;;;16.30;99.90;;;;;;5043954;28;20230;-73
2022/09/24 09:56:44;;;;;;;66.45;46.60;;;16.20;99.90;;;;;;5045620;28;20206;-74
2022/09/24 09:59:19;;;;;;;57.28;45.45;;;16.10;99.90;;;;;;5042453;28;20304;-74
2022/09/24 10:01:48;;;;;;;52.53;43.42;;;16.00;99.90;;;;;;5038873;28;20205;-74
2022/09/24 10:04:30;;;;;;;60.72;47.80;;;16.00;99.90;;;;;;5052171;28;20677;-75
2022/09/24 10:07:07;;;;;;;56.45;44.65;;;15.90;99.90;;;;;;5046146;28;20262;-74
2022/09/24 10:09:35;;;;;;;53.88;44.45;;;15.80;99.90;;;;;;5045494;28;20247;-74
2022/09/24 10:12:16;;;;;;;64.25;45.88;;;15.80;99.90;;;;;;5036552;28;20220;-76
2022/09/24 10:14:44;;;;;;;55.95;43.22;;;15.80;99.90;;;;;;5040095;28;20198;-72
2022/09/24 10:17:16;;;;;;;55.90;43.72;;;15.80;99.90;;;;;;5037697;28;20719;-74
2022/09/24 10:19:46;;;;;;;48.25;39.10;;;15.90;99.90;;;;;;5048424;28;20222;-74
2022/09/24 10:22:21;;;;;;;63.95;48.40;;;15.90;99.90;;;;;;5041770;28;20206;-74
2022/09/24 10:24:49;;;;;;;61.88;48.40;;;15.70;99.90;;;;;;5049998;28;20228;-73
2022/09/24 10:27:26;;;;;;;65.88;48.42;;;15.70;99.90;;;;;;5047241;28;20234;-75
2022/09/24 10:32:41;;;;;;;50.38;40.92;;;15.60;99.90;;;;;;5049797;28;20219;-75
2022/09/24 10:35:23;;;;;;;58.67;46.20;;;15.70;99.90;;;;;;5036598;28;20212;-76
2022/09/24 10:37:53;;;;;;;53.72;44.65;;;15.70;99.90;;;;;;5050049;28;20230;-74
2022/09/24 10:40:24;;;;;;;53.05;44.05;;;15.80;99.90;;;;;;5039766;28;20286;-74
2022/09/24 10:43:02;;;;;;;49.63;42.73;;;16.00;99.90;;;;;;5037965;28;20739;-75
2022/09/24 10:46:11;;;;;;;58.67;41.30;;;16.10;99.90;;;;;;5042369;28;20448;-74
2022/09/24 10:48:44;;;;;;;46.50;39.13;;;16.20;99.90;;;;;;5036712;28;20477;-74
2022/09/24 10:51:26;;;;;;;49.00;39.63;;;16.40;99.90;;;;;;5047572;28;20641;-74
2022/09/24 10:54:06;;;;;;;40.50;36.07;;;16.40;99.90;;;;;;5048530;28;20928;-74
2022/09/24 10:56:37;;;;;;;41.03;36.25;;;16.60;99.90;;;;;;5019930;28;20471;-74
2022/09/24 10:59:34;;;;;;;54.20;40.97;;;16.70;99.90;;;;;;5036415;28;20199;-74
2022/09/24 11:02:27;;;;;;;40.55;35.42;;;16.60;99.90;;;;;;5039666;28;20440;-73
2022/09/24 11:04:56;;;;;;;46.30;39.03;;;16.80;99.90;;;;;;5049529;28;20290;-74
2022/09/24 11:07:47;;;;;;;51.28;39.20;;;16.70;99.90;;;;;;5066357;28;20314;-75
2022/09/24 11:10:23;;;;;;;61.27;50.73;;;16.60;99.90;;;;;;5055135;28;20198;-74
2022/09/24 11:13:02;;;;;;;72.15;53.03;;;16.50;99.90;;;;;;5043955;28;20445;-74
2022/09/24 11:15:52;;;;;;;44.80;36.00;;;16.50;99.90;;;;;;5034093;28;20658;-75
2022/09/24 11:18:36;;;;;;;47.38;37.45;;;16.20;99.90;;;;;;5028418;28;20841;-73
2022/09/24 11:21:19;;;;;;;52.63;38.90;;;16.30;99.90;;;;;;5039402;28;20220;-76
2022/09/24 11:24:20;;;;;;;40.90;35.77;;;16.30;99.90;;;;;;5028036;28;20470;-77
2022/09/24 11:27:06;;;;;;;40.97;36.57;;;16.50;99.90;;;;;;5023932;28;20495;-75
2022/09/24 11:29:54;;;;;;;36.20;32.03;;;16.50;99.90;;;;;;5047114;28;20453;-77
2022/09/24 11:32:29;;;;;;;39.70;33.40;;;16.60;99.90;;;;;;5040621;28;20943;-75
2022/09/24 11:35:23;;;;;;;42.00;35.83;;;16.60;99.90;;;;;;5022870;28;20522;-74
2022/09/24 11:37:59;;;;;;;39.37;33.03;;;16.60;99.90;;;;;;5031329;28;20476;-76
2022/09/24 11:40:44;;;;;;;33.55;29.98;;;16.60;99.90;;;;;;5037100;28;20541;-72
2022/09/24 11:43:32;;;;;;;45.60;37.03;;;16.50;99.90;;;;;;5027657;28;20239;-74
2022/09/24 11:46:13;;;;;;;45.95;34.95;;;16.20;99.90;;;;;;5029019;28;20206;-74
2022/09/24 11:48:57;;;;;;;41.30;36.22;;;16.10;99.90;;;;;;5026777;28;20568;-75
2022/09/24 11:51:33;;;;;;;42.15;34.55;;;16.00;99.90;;;;;;5025012;28;20206;-75
2022/09/24 11:54:07;;;;;;;42.55;35.20;;;16.10;99.90;;;;;;5020262;28;20641;-74
2022/09/24 11:56:40;;;;;;;37.88;33.58;;;16.20;99.90;;;;;;5032649;28;20594;-73
2022/09/24 11:59:17;;;;;;;37.30;33.25;;;16.30;99.90;;;;;;5045144;28;20205;-74
2022/09/24 12:01:49;;;;;;;44.20;35.65;;;16.30;99.90;;;;;;5040341;28;20205;-73
2022/09/24 12:04:20;;;;;;;36.05;30.77;;;16.20;99.90;;;;;;5041930;28;20230;-74
2022/09/24 12:06:53;;;;;;;37.05;31.38;;;16.10;99.90;;;;;;5040080;28;20336;-75
2022/09/24 12:09:27;;;;;;;36.42;30.02;;;16.10;99.90;;;;;;5048482;28;20202;-73
2022/09/24 12:12:01;;;;;;;39.00;32.53;;;16.10;99.90;;;;;;5041696;28;20288;-76
2022/09/24 12:14:31;;;;;;;37.90;29.58;;;16.10;99.90;;;;;;5034614;28;20207;-74
2022/09/24 12:17:03;;;;;;;40.42;30.67;;;16.20;99.90;;;;;;5039859;28;20253;-74
2022/09/24 12:19:36;;;;;;;38.75;31.20;;;16.20;99.90;;;;;;5040100;28;20216;-78
2022/09/24 12:22:04;;;;;;;42.25;32.60;;;16.30;99.90;;;;;;5041893;28;20286;-74
2022/09/24 12:24:36;;;;;;;45.10;33.35;;;16.30;99.90;;;;;;5045027;28;20222;-76
2022/09/24 12:27:10;;;;;;;39.75;32.15;;;16.20;99.90;;;;;;5035354;28;20242;-74
2022/09/24 12:32:58;;;;;;;36.85;28.65;;;16.30;99.90;;;;;;5024468;28;20919;-77
2022/09/24 12:35:43;;;;;;;35.97;29.33;;;16.30;99.90;;;;;;5031098;28;20238;-76
2022/09/24 12:38:14;;;;;;;33.50;28.97;;;16.40;99.90;;;;;;5051918;28;20466;-79
2022/09/24 12:41:17;;;;;;;37.20;31.87;;;16.50;99.90;;;;;;5038182;28;20488;-77
2022/09/24 12:43:49;;;;;;;37.08;30.58;;;16.60;99.90;;;;;;5043837;28;20567;-76
2022/09/24 12:46:21;;;;;;;36.40;29.03;;;16.70;99.90;;;;;;5036606;28;20210;-75
2022/09/24 12:48:57;;;;;;;33.73;28.27;;;16.90;99.90;;;;;;5043652;28;20524;-77
2022/09/24 12:51:34;;;;;;;33.90;28.70;;;17.10;99.90;;;;;;5042684;28;20457;-76
2022/09/24 12:54:10;;;;;;;37.37;31.03;;;17.20;99.90;;;;;;5036086;28;20448;-75
2022/09/24 12:56:36;;;;;;;33.43;28.30;;;17.30;99.90;;;;;;5035561;28;20472;-76
2022/09/24 12:59:04;;;;;;;33.80;29.27;;;17.50;99.90;;;;;;5046528;28;20897;-75
2022/09/24 13:01:34;;;;;;;36.20;30.57;;;17.50;99.90;;;;;;5035584;28;20458;-76
2022/09/24 13:04:24;;;;;;;38.40;28.73;;;17.80;99.90;;;;;;5037749;28;20577;-75
2022/09/24 13:06:52;;;;;;;32.90;28.30;;;17.80;99.90;;;;;;5036348;28;20465;-76
2022/09/24 13:09:31;;;;;;;31.37;27.13;;;17.90;99.90;;;;;;5051824;28;20465;-76